Urb Ferry Barranca, Puerto Rico
Current Conditions -  °F | °C
As of 5:50 AM on Saturday 22 Nov 2014 (Local Time) from TJBQ Reporting Station
Scattered Clouds Scattered Clouds  
Wind Chill: 75°   Ceiling: Unl
Heat Index: 75°   Visibility: 10mi
Dew Point: 72°   Wind: 10mph
Humidity: 89%   Direction: 90°E
Pressure: 29.99"   Gusts: NA
Location:  18.0152°N, 66.6246°W
Report Text: TJBQ 220950Z 09009KT 10SM SCT075 24/22 A2999 RMK RWY08 ATIS M
Loading
Personal Weather Stations






























Interactive Weather Map New forecast layout! Learn more

10-Day Weather Forecast

Advertisements
Track Severe Weather on mobile